Time;durP1;ratioP1;P1;durP2;ratioP2;P2;SDS_P1;SDS_P2;PMS_P1;PMS_P2;Temp;Humidity;BMP_temperature;BMP_pressure;BME280_temperature;BME280_humidity;BME280_pressure;Samples;Min_cycle;Max_cycle;Signal;HPM_P1;HPM_P2
2023/10/23 00:01:07;;;;;;;11.60;6.45;;;;;;;;;;5095693;28;20503;-60
2023/10/23 00:03:33;;;;;;;9.25;5.38;;;;;;;;;;5113825;28;20050;-60
2023/10/23 00:05:58;;;;;;;11.05;6.30;;;;;;;;;;5114233;28;20039;-60
2023/10/23 00:08:25;;;;;;;10.32;5.55;;;;;;;;;;5094470;28;20657;-60
2023/10/23 00:10:51;;;;;;;12.25;7.13;;;;;;;;;;5096269;28;20048;-60
2023/10/23 00:13:17;;;;;;;11.43;6.32;;;;;;;;;;5114611;28;20487;-60
2023/10/23 00:15:43;;;;;;;13.30;6.40;;;;;;;;;;5112209;28;20046;-60
2023/10/23 00:18:09;;;;;;;11.40;6.50;;;;;;;;;;5095736;28;20559;-60
2023/10/23 00:20:35;;;;;;;13.40;6.93;;;;;;;;;;5114844;28;20131;-60
2023/10/23 00:23:02;;;;;;;10.13;7.07;;;;;;;;;;5106344;28;20086;-60
2023/10/23 00:25:28;;;;;;;12.18;6.97;;;;;;;;;;5094550;28;20178;-60
2023/10/23 00:27:54;;;;;;;9.07;6.53;;;;;;;;;;5072178;28;20610;-60
2023/10/23 00:30:20;;;;;;;9.90;6.50;;;;;;;;;;5095681;28;20063;-60
2023/10/23 00:32:46;;;;;;;12.23;6.50;;;;;;;;;;5114492;28;20126;-60
2023/10/23 00:35:12;;;;;;;12.57;7.30;;;;;;;;;;5114078;27;20126;-60
2023/10/23 00:37:38;;;;;;;11.30;6.47;;;;;;;;;;5110443;27;20589;-60
2023/10/23 00:40:04;;;;;;;11.80;6.95;;;;;;;;;;5111808;27;20479;-61
2023/10/23 00:42:32;;;;;;;13.30;7.25;;;;;;;;;;5110691;27;20130;-60
2023/10/23 00:44:59;;;;;;;12.40;7.25;;;;;;;;;;5095371;28;20048;-60
2023/10/23 00:47:26;;;;;;;10.70;6.97;;;;;;;;;;5111579;27;20079;-60
2023/10/23 00:49:52;;;;;;;10.73;6.40;;;;;;;;;;5095240;28;20047;-60
2023/10/23 00:52:19;;;;;;;10.93;7.05;;;;;;;;;;5095365;28;20075;-60
2023/10/23 00:54:45;;;;;;;9.30;6.53;;;;;;;;;;5113077;28;20533;-60
2023/10/23 00:57:14;;;;;;;14.13;6.72;;;;;;;;;;5113728;28;20035;-60
2023/10/23 00:59:40;;;;;;;12.50;6.22;;;;;;;;;;5110683;27;20071;-60
2023/10/23 01:02:07;;;;;;;11.50;6.65;;;;;;;;;;5111084;27;20082;-61
2023/10/23 01:04:33;;;;;;;11.73;6.43;;;;;;;;;;5113818;28;20460;-61
2023/10/23 01:06:59;;;;;;;9.48;6.57;;;;;;;;;;5112776;27;20130;-60
2023/10/23 01:09:25;;;;;;;9.05;6.30;;;;;;;;;;5093409;28;20111;-60
2023/10/23 01:11:51;;;;;;;15.88;6.43;;;;;;;;;;5091957;28;20093;-60
2023/10/23 01:14:17;;;;;;;10.25;6.18;;;;;;;;;;5104709;27;20051;-60
2023/10/23 01:16:43;;;;;;;11.70;7.10;;;;;;;;;;5113283;28;20054;-60
2023/10/23 01:19:09;;;;;;;11.38;6.80;;;;;;;;;;5113826;27;20044;-60
2023/10/23 01:21:35;;;;;;;10.23;6.45;;;;;;;;;;5094980;28;20071;-60
2023/10/23 01:24:01;;;;;;;11.25;6.28;;;;;;;;;;5099948;28;20456;-60
2023/10/23 01:26:27;;;;;;;12.38;5.85;;;;;;;;;;5104601;27;20100;-60
2023/10/23 01:28:53;;;;;;;11.32;7.00;;;;;;;;;;5094335;28;20069;-60
2023/10/23 01:31:19;;;;;;;11.05;6.45;;;;;;;;;;5113197;28;20078;-60
2023/10/23 01:33:45;;;;;;;10.15;6.88;;;;;;;;;;5111931;28;20444;-60
2023/10/23 01:36:11;;;;;;;10.95;6.82;;;;;;;;;;5110549;28;20408;-60
2023/10/23 01:38:37;;;;;;;10.35;6.25;;;;;;;;;;5090924;28;20075;-60
2023/10/23 01:41:03;;;;;;;12.95;6.32;;;;;;;;;;5111926;28;20142;-61
2023/10/23 01:43:29;;;;;;;10.38;7.28;;;;;;;;;;5094704;28;20115;-60
2023/10/23 01:45:57;;;;;;;9.38;6.65;;;;;;;;;;5110357;27;20043;-60
2023/10/23 01:48:23;;;;;;;9.77;7.05;;;;;;;;;;5109663;28;20549;-60
2023/10/23 01:50:49;;;;;;;8.82;6.50;;;;;;;;;;5094729;28;20088;-60
2023/10/23 01:53:18;;;;;;;12.40;7.82;;;;;;;;;;5062733;28;20122;-60
2023/10/23 01:55:44;;;;;;;10.48;6.47;;;;;;;;;;5112677;28;20400;-60
2023/10/23 01:58:10;;;;;;;9.52;7.43;;;;;;;;;;5111642;28;20505;-60
2023/10/23 02:00:36;;;;;;;9.63;7.40;;;;;;;;;;5111268;28;20042;-60
2023/10/23 02:03:02;;;;;;;8.77;6.60;;;;;;;;;;5094560;28;20052;-60
2023/10/23 02:05:28;;;;;;;10.65;7.35;;;;;;;;;;5112091;28;20483;-60
2023/10/23 02:07:54;;;;;;;10.80;8.15;;;;;;;;;;5094078;28;20048;-60
2023/10/23 02:10:20;;;;;;;10.40;7.90;;;;;;;;;;5112155;27;20050;-60
2023/10/23 02:12:46;;;;;;;15.15;8.73;;;;;;;;;;5110803;27;20047;-60
2023/10/23 02:15:13;;;;;;;13.07;8.98;;;;;;;;;;5085533;28;20052;-60
2023/10/23 02:17:39;;;;;;;14.00;7.78;;;;;;;;;;5111508;28;20043;-60
2023/10/23 02:20:05;;;;;;;14.43;9.40;;;;;;;;;;5110763;28;20100;-60
2023/10/23 02:22:32;;;;;;;13.02;8.50;;;;;;;;;;5112244;28;20054;-60
2023/10/23 02:24:58;;;;;;;14.30;9.25;;;;;;;;;;5093703;28;20043;-60
2023/10/23 02:27:25;;;;;;;11.00;8.38;;;;;;;;;;5107007;28;20050;-60
2023/10/23 02:29:51;;;;;;;11.18;8.23;;;;;;;;;;5080526;28;20112;-60
2023/10/23 02:32:17;;;;;;;9.57;7.10;;;;;;;;;;5112465;28;20054;-60
2023/10/23 02:34:43;;;;;;;11.77;7.47;;;;;;;;;;5106275;28;20043;-60
2023/10/23 02:37:09;;;;;;;14.98;9.02;;;;;;;;;;5110969;28;20047;-60
2023/10/23 02:39:35;;;;;;;10.57;7.75;;;;;;;;;;5110992;28;20075;-60
2023/10/23 02:42:01;;;;;;;13.77;8.68;;;;;;;;;;5111597;28;20408;-60
2023/10/23 02:44:28;;;;;;;15.25;9.40;;;;;;;;;;5111678;28;20047;-60
2023/10/23 02:46:54;;;;;;;12.57;9.00;;;;;;;;;;5111135;28;20048;-60
2023/10/23 02:49:20;;;;;;;13.95;9.38;;;;;;;;;;5109433;28;20044;-60
2023/10/23 02:51:47;;;;;;;16.40;10.75;;;;;;;;;;5109599;28;20051;-60
2023/10/23 02:54:13;;;;;;;18.60;9.48;;;;;;;;;;5111686;28;20069;-60
2023/10/23 02:56:39;;;;;;;15.00;9.93;;;;;;;;;;5092078;28;20048;-60
2023/10/23 02:59:05;;;;;;;16.73;10.07;;;;;;;;;;5093957;28;20506;-60
2023/10/23 03:01:32;;;;;;;19.88;10.05;;;;;;;;;;5109893;28;20054;-60
2023/10/23 03:03:59;;;;;;;19.23;11.30;;;;;;;;;;5109526;28;20051;-60
2023/10/23 03:06:25;;;;;;;18.35;11.68;;;;;;;;;;5093387;28;20043;-60
2023/10/23 03:08:51;;;;;;;18.83;10.32;;;;;;;;;;5111272;28;20081;-60
2023/10/23 03:11:17;;;;;;;17.70;10.93;;;;;;;;;;5109589;28;20397;-60
2023/10/23 03:13:43;;;;;;;15.23;10.93;;;;;;;;;;5093376;28;20120;-60
2023/10/23 03:16:09;;;;;;;17.77;10.75;;;;;;;;;;5110863;28;20127;-60
2023/10/23 03:18:35;;;;;;;15.70;11.10;;;;;;;;;;5093564;28;20048;-60
2023/10/23 03:21:01;;;;;;;15.70;11.05;;;;;;;;;;5092852;28;20043;-60
2023/10/23 03:23:31;;;;;;;16.08;11.00;;;;;;;;;;5111839;28;20419;-60
2023/10/23 03:25:58;;;;;;;17.00;11.93;;;;;;;;;;5103569;28;20411;-60
2023/10/23 03:28:24;;;;;;;16.52;11.23;;;;;;;;;;5101549;28;20039;-60
2023/10/23 03:30:50;;;;;;;16.42;10.07;;;;;;;;;;5109151;28;20035;-60
2023/10/23 03:33:18;;;;;;;18.42;10.85;;;;;;;;;;5093591;28;20043;-60
2023/10/23 03:35:44;;;;;;;22.27;11.77;;;;;;;;;;5078954;28;20448;-60
2023/10/23 03:38:10;;;;;;;17.17;11.48;;;;;;;;;;5095797;28;20498;-60
2023/10/23 03:40:37;;;;;;;17.63;11.40;;;;;;;;;;5078814;28;20043;-60
2023/10/23 03:43:03;;;;;;;18.30;11.98;;;;;;;;;;5113919;27;20052;-61
2023/10/23 03:45:29;;;;;;;17.92;12.30;;;;;;;;;;5114915;27;20043;-60
2023/10/23 03:47:55;;;;;;;21.60;13.15;;;;;;;;;;5114955;27;20048;-60
2023/10/23 03:50:21;;;;;;;17.40;11.25;;;;;;;;;;5113263;27;20419;-60
2023/10/23 03:52:49;;;;;;;18.70;11.82;;;;;;;;;;5113096;27;20059;-60
2023/10/23 03:55:15;;;;;;;19.30;11.27;;;;;;;;;;5115096;28;20484;-60
2023/10/23 03:57:41;;;;;;;17.75;11.98;;;;;;;;;;5110316;27;20036;-60
2023/10/23 04:00:10;;;;;;;18.15;11.63;;;;;;;;;;5112431;28;20051;-60
2023/10/23 04:02:36;;;;;;;17.08;11.57;;;;;;;;;;5095056;28;20046;-60
2023/10/23 04:05:02;;;;;;;19.83;11.80;;;;;;;;;;5113827;28;20044;-60
2023/10/23 04:07:28;;;;;;;16.63;10.93;;;;;;;;;;5114684;28;20048;-60
2023/10/23 04:09:54;;;;;;;17.10;11.95;;;;;;;;;;5111562;28;20075;-60
2023/10/23 04:12:20;;;;;;;17.10;11.73;;;;;;;;;;5107447;27;20066;-60
2023/10/23 04:14:46;;;;;;;17.65;12.05;;;;;;;;;;5114269;27;20061;-60
2023/10/23 04:17:12;;;;;;;19.70;12.18;;;;;;;;;;5114431;28;20081;-60
2023/10/23 04:19:39;;;;;;;17.85;11.50;;;;;;;;;;5113679;28;20075;-60
2023/10/23 04:22:05;;;;;;;17.63;11.50;;;;;;;;;;5112811;27;20051;-60
2023/10/23 04:24:31;;;;;;;14.18;9.95;;;;;;;;;;5113761;27;20069;-60
2023/10/23 04:26:57;;;;;;;12.45;9.05;;;;;;;;;;5112658;27;20100;-60
2023/10/23 04:29:23;;;;;;;13.18;10.27;;;;;;;;;;5093990;28;20051;-60
2023/10/23 04:31:49;;;;;;;14.25;9.20;;;;;;;;;;5114782;28;20126;-60
2023/10/23 04:34:15;;;;;;;12.50;8.63;;;;;;;;;;5112765;28;20071;-60
2023/10/23 04:36:41;;;;;;;11.57;8.73;;;;;;;;;;5114804;28;20086;-60
2023/10/23 04:39:07;;;;;;;10.32;7.78;;;;;;;;;;5109928;28;20040;-60
2023/10/23 04:41:33;;;;;;;12.60;8.30;;;;;;;;;;5096905;28;20069;-60
2023/10/23 04:43:59;;;;;;;12.80;9.30;;;;;;;;;;5096251;28;20138;-60
2023/10/23 04:46:25;;;;;;;13.30;9.30;;;;;;;;;;5114256;28;20055;-60
2023/10/23 04:48:51;;;;;;;13.27;9.23;;;;;;;;;;5094807;28;20047;-60
2023/10/23 04:51:17;;;;;;;12.75;9.10;;;;;;;;;;5112528;28;20520;-60
2023/10/23 04:53:43;;;;;;;13.95;9.27;;;;;;;;;;5111856;28;20043;-60
2023/10/23 04:56:09;;;;;;;21.40;11.23;;;;;;;;;;5096227;28;20042;-60
2023/10/23 04:58:35;;;;;;;16.00;10.65;;;;;;;;;;5094805;28;20044;-60
2023/10/23 05:01:01;;;;;;;18.88;11.88;;;;;;;;;;5095477;28;20079;-60
2023/10/23 05:03:29;;;;;;;15.93;11.18;;;;;;;;;;5112140;27;20043;-60
2023/10/23 05:05:55;;;;;;;18.17;11.00;;;;;;;;;;5096223;28;20144;-60
2023/10/23 05:08:21;;;;;;;18.08;11.65;;;;;;;;;;5094466;28;20508;-60
2023/10/23 05:10:47;;;;;;;24.35;12.75;;;;;;;;;;5112199;28;20499;-60
2023/10/23 05:13:13;;;;;;;16.65;11.80;;;;;;;;;;5111325;27;20048;-60
2023/10/23 05:15:40;;;;;;;22.42;12.20;;;;;;;;;;5113534;28;20040;-60
2023/10/23 05:18:06;;;;;;;20.73;12.40;;;;;;;;;;5113612;28;20046;-61
2023/10/23 05:20:34;;;;;;;17.98;12.55;;;;;;;;;;5112276;28;20119;-60
2023/10/23 05:23:00;;;;;;;21.25;11.35;;;;;;;;;;5113847;28;20097;-60
2023/10/23 05:25:26;;;;;;;22.27;13.23;;;;;;;;;;5113616;28;20035;-60
2023/10/23 05:27:52;;;;;;;22.20;13.65;;;;;;;;;;5112792;27;20450;-60
2023/10/23 05:30:18;;;;;;;23.08;13.73;;;;;;;;;;5111630;28;20040;-60
2023/10/23 05:32:47;;;;;;;30.42;14.55;;;;;;;;;;5113810;28;20262;-60
2023/10/23 05:35:13;;;;;;;25.42;14.50;;;;;;;;;;5094681;27;20135;-60
2023/10/23 05:37:39;;;;;;;26.15;15.48;;;;;;;;;;5095914;28;20436;-60
2023/10/23 05:40:05;;;;;;;22.55;13.43;;;;;;;;;;5093218;27;20963;-61
2023/10/23 05:42:31;;;;;;;23.65;14.98;;;;;;;;;;5109932;27;20135;-60
2023/10/23 05:44:57;;;;;;;18.08;11.90;;;;;;;;;;5092179;28;20134;-60
2023/10/23 05:47:24;;;;;;;26.90;13.38;;;;;;;;;;5077924;28;20058;-60
2023/10/23 05:49:50;;;;;;;19.17;12.57;;;;;;;;;;5113335;28;20047;-60
2023/10/23 05:52:16;;;;;;;17.40;12.05;;;;;;;;;;5110979;27;20047;-60
2023/10/23 05:54:42;;;;;;;22.52;11.38;;;;;;;;;;5112020;28;20052;-60
2023/10/23 05:57:08;;;;;;;18.25;11.95;;;;;;;;;;5111292;27;20100;-60
2023/10/23 05:59:34;;;;;;;20.90;12.15;;;;;;;;;;5109459;27;20391;-60
2023/10/23 06:02:00;;;;;;;17.15;10.95;;;;;;;;;;5112001;28;20051;-60
2023/10/23 06:04:27;;;;;;;15.23;10.95;;;;;;;;;;5111811;28;20103;-60
2023/10/23 06:06:53;;;;;;;17.42;11.00;;;;;;;;;;5094860;28;20051;-60
2023/10/23 06:09:19;;;;;;;18.33;11.40;;;;;;;;;;5110405;27;20036;-60
2023/10/23 06:11:45;;;;;;;16.67;10.50;;;;;;;;;;5091647;28;20047;-60
2023/10/23 06:14:11;;;;;;;17.58;11.90;;;;;;;;;;5111346;27;20099;-60
2023/10/23 06:16:37;;;;;;;16.45;10.20;;;;;;;;;;5111711;28;20127;-60
2023/10/23 06:19:06;;;;;;;17.85;11.02;;;;;;;;;;5111320;28;20097;-61
2023/10/23 06:21:32;;;;;;;15.77;10.27;;;;;;;;;;5111778;28;20048;-60
2023/10/23 06:23:58;;;;;;;22.80;12.05;;;;;;;;;;5092727;28;20462;-61
2023/10/23 06:26:24;;;;;;;19.95;11.07;;;;;;;;;;5111637;28;20054;-60
2023/10/23 06:28:50;;;;;;;23.02;12.77;;;;;;;;;;5091653;28;20055;-60
2023/10/23 06:31:16;;;;;;;21.35;11.95;;;;;;;;;;5104594;28;20043;-61
2023/10/23 06:33:43;;;;;;;24.90;13.35;;;;;;;;;;5110725;28;20624;-60
2023/10/23 06:36:09;;;;;;;27.48;13.95;;;;;;;;;;5111971;28;20360;-61
2023/10/23 06:38:36;;;;;;;31.65;14.77;;;;;;;;;;5092700;28;20114;-60
2023/10/23 06:41:04;;;;;;;22.98;13.23;;;;;;;;;;5108731;27;20048;-60
2023/10/23 06:43:30;;;;;;;20.95;12.75;;;;;;;;;;5106791;28;20047;-61
2023/10/23 06:45:56;;;;;;;20.05;12.68;;;;;;;;;;5109464;28;20051;-60
2023/10/23 06:48:22;;;;;;;18.35;11.68;;;;;;;;;;5107851;28;20144;-61
2023/10/23 06:50:48;;;;;;;15.48;10.82;;;;;;;;;;5105573;28;20096;-61
2023/10/23 06:53:15;;;;;;;17.40;10.68;;;;;;;;;;5067366;28;20055;-61
2023/10/23 06:55:50;;;;;;;15.73;10.82;;;;;;;;;;5071788;28;20046;-60
2023/10/23 06:58:16;;;;;;;15.48;10.57;;;;;;;;;;5106413;28;20048;-61
2023/10/23 07:00:42;;;;;;;17.45;11.25;;;;;;;;;;5106441;28;20088;-61
2023/10/23 07:03:08;;;;;;;15.38;10.85;;;;;;;;;;5109036;28;20093;-60
2023/10/23 07:05:34;;;;;;;15.38;10.82;;;;;;;;;;5111341;28;20364;-60
2023/10/23 07:08:00;;;;;;;17.63;11.40;;;;;;;;;;5093522;28;20130;-60
2023/10/23 07:10:26;;;;;;;17.00;11.23;;;;;;;;;;5107890;28;20119;-60
2023/10/23 07:12:54;;;;;;;34.13;16.48;;;;;;;;;;5114454;28;20474;-60
2023/10/23 07:15:20;;;;;;;38.15;19.75;;;;;;;;;;5115954;28;20134;-60
2023/10/23 07:17:46;;;;;;;46.47;22.90;;;;;;;;;;5096209;28;20130;-60
2023/10/23 07:20:16;;;;;;;38.97;20.42;;;;;;;;;;5115116;27;20571;-60
2023/10/23 07:22:42;;;;;;;;;;;5.90;99.90;;;;;;5098013;28;20039;-60
2023/10/23 07:25:09;;;;;;;26.92;14.90;;;;;;;;;;5089965;28;19951;-61
2023/10/23 07:27:35;;;;;;;22.77;14.52;;;;;;;;;;5093434;28;20051;-60
2023/10/23 07:30:03;;;;;;;23.02;14.10;;;;;;;;;;5090241;28;20054;-61
2023/10/23 07:32:29;;;;;;;22.27;13.75;;;;;;;;;;5097270;28;20047;-60
2023/10/23 07:34:55;;;;;;;26.60;13.82;;;;;;;;;;5115834;28;20046;-60
2023/10/23 07:37:22;;;;;;;23.83;14.50;;;;;;;;;;5095211;28;20090;-61
2023/10/23 07:39:48;;;;;;;24.85;15.52;;;;;;;;;;5115827;28;20373;-60
2023/10/23 07:42:15;;;;;;;24.15;15.20;;;;;;;;;;5114775;28;20050;-60
2023/10/23 07:44:42;;;;;;;28.30;16.33;;;;;;;;;;5114499;28;20415;-60
2023/10/23 07:47:07;;;;;;;24.15;15.68;;;;;;;;;;5108454;27;20051;-60
2023/10/23 07:49:33;;;;;;;24.60;16.38;;;;;;;;;;5107330;27;20103;-60
2023/10/23 07:52:00;;;;;;;25.20;16.85;;;;;;;;;;5111446;27;20043;-60
2023/10/23 07:54:26;;;;;;;26.98;15.73;;;;;;;;;;5109154;27;20544;-60
2023/10/23 07:56:55;;;;;;;30.33;14.90;;;;;;;;;;5104577;27;20044;-60
2023/10/23 07:59:22;;;;;;;46.30;18.85;;;;;;;;;;5112282;27;20040;-61
2023/10/23 08:01:48;;;;;;;28.48;16.80;;;;;;;;;;5104440;27;20079;-61
2023/10/23 08:04:14;;;;;;;26.63;16.05;;;;;;;;;;5105724;27;20048;-60
2023/10/23 08:06:40;;;;;;;26.40;16.00;;;;;;;;;;5090711;28;20055;-60
2023/10/23 08:09:06;;;;;;;22.05;15.45;;;;;;;;;;5114721;27;20081;-61
2023/10/23 08:11:32;;;;;;;23.77;15.35;;;;;;;;;;5096947;28;20119;-60
2023/10/23 08:13:59;;;;;;;26.13;14.98;;;;;;;;;;5115387;28;20522;-61
2023/10/23 08:16:25;;;;;;;19.45;14.18;;;;;;;;;;5102088;27;20056;-60
2023/10/23 08:18:51;;;;;;;20.25;13.85;;;;;;;;;;5116000;27;20048;-60
2023/10/23 08:21:17;;;;;;;17.88;12.80;;;;;;;;;;5112417;28;20043;-60
2023/10/23 08:23:46;;;;;;;16.58;12.05;;;;;;;;;;5113803;28;20050;-60
2023/10/23 08:26:13;;;;;;;18.02;11.13;;;;;;;;;;5096259;28;20101;-61
2023/10/23 08:28:39;;;;;;;21.58;11.93;;;;;;;;;;5111812;28;20066;-60
2023/10/23 08:31:05;;;;;;;15.27;11.43;;;;;;;;;;5080822;28;20056;-61
2023/10/23 08:33:31;;;;;;;16.95;11.40;;;;;;;;;;5094724;28;20040;-61
2023/10/23 08:35:57;;;;;;;15.25;10.32;;;;;;;;;;5096751;28;20044;-60
2023/10/23 08:38:23;;;;;;;15.18;10.57;;;;;;;;;;5112552;27;20138;-60
2023/10/23 08:40:49;;;;;;;15.10;10.93;;;;;;;;;;5094752;28;20051;-60
2023/10/23 08:43:15;;;;;;;16.65;10.45;;;;;;;;;;5114547;28;20058;-61
2023/10/23 08:45:43;;;;;;;13.98;10.05;;;;;;;;;;5096936;28;20061;-60
2023/10/23 08:48:09;;;;;;;17.23;10.07;;;;;;;;;;5096536;28;20065;-61
2023/10/23 08:50:36;;;;;;;19.42;10.10;;;;;;;;;;5113537;28;20070;-60
2023/10/23 08:53:05;;;;;;;18.05;9.73;;;;;;;;;;5114430;28;20070;-62
2023/10/23 08:55:32;;;;;;;13.88;9.52;;;;;;;;;;5095331;28;20492;-60
2023/10/23 08:57:59;;;;;;;14.95;8.90;;;;;;;;;;5095940;28;20047;-61
2023/10/23 09:00:25;;;;;;;13.63;9.45;;;;;;;;;;5094935;28;20172;-60
2023/10/23 09:02:52;;;;;;;15.13;8.70;;;;;;;;;;5095062;28;20491;-61
2023/10/23 09:05:19;;;;;;;15.98;8.70;;;;;;;;;;5113632;28;20051;-61
2023/10/23 09:07:45;;;;;;;15.13;9.00;;;;;;;;;;5096275;28;20047;-60
2023/10/23 09:10:11;;;;;;;13.13;7.72;;;;;;;;;;5114001;28;20054;-60
2023/10/23 09:12:39;;;;;;;12.25;8.13;;;;;;;;;;5096531;28;20051;-60
2023/10/23 09:15:20;;;;;;;12.15;8.75;;;;;;;;;;5095563;28;20047;-61
2023/10/23 09:17:48;;;;;;;15.57;8.88;;;;;;;;;;5113620;27;20411;-61
2023/10/23 09:20:20;;;;;;;11.75;8.18;;;;;;;;;;5092565;28;20107;-60
2023/10/23 09:22:49;;;;;;;14.13;9.80;;;;;;;;;;5113043;28;20043;-60
2023/10/23 09:25:22;;;;;;;15.32;9.05;;;;;;;;;;5095185;27;20518;-60
2023/10/23 09:27:48;;;;;;;14.32;9.23;;;;;;;;;;5114083;28;20065;-61
2023/10/23 09:30:24;;;;;;;13.65;9.52;;;;;;;;;;5113369;28;20484;-61
2023/10/23 09:32:53;;;;;;;17.77;9.30;;;;;;;;;;5111578;28;20530;-60
2023/10/23 09:35:20;;;;;;;12.18;8.95;;;;;;;;;;5093616;28;20400;-61
2023/10/23 09:37:46;;;;;;;14.45;9.27;;;;;;;;;;5113914;28;20040;-60
2023/10/23 09:40:12;;;;;;;14.57;8.80;;;;;;;;;;5113156;28;20051;-60
2023/10/23 09:42:39;;;;;;;14.45;8.98;;;;;;;;;;5096786;27;20043;-60
2023/10/23 09:45:05;;;;;;;16.67;9.15;;;;;;;;;;5109749;28;20043;-61
2023/10/23 09:47:32;;;;;;;22.40;8.55;;;;;;;;;;5111873;28;20108;-60
2023/10/23 09:49:59;;;;;;;11.93;8.23;;;;;;;;;;5112417;28;20096;-61
2023/10/23 09:52:25;;;;;;;13.85;8.55;;;;;;;;;;5112675;28;20051;-60
2023/10/23 09:54:58;;;;;;;13.98;8.20;;;;;;;;;;5113045;28;20043;-60
2023/10/23 09:57:27;;;;;;;17.10;8.52;;;;;;;;;;5106129;28;20130;-61
2023/10/23 09:59:57;;;;;;;36.95;10.30;;;;;;;;;;5112828;28;20035;-60
2023/10/23 10:02:24;;;;;;;;;;;12.80;99.90;;;;;;5113010;28;20044;-60
2023/10/23 10:05:00;;;;;;;35.05;10.40;;;;;;;;;;5093315;28;19919;-60
2023/10/23 10:07:30;;;;;;;12.27;8.27;;;;;;;;;;5094421;28;20067;-60
2023/10/23 10:09:56;;;;;;;12.03;7.23;;;;;;;;;;5113176;28;20039;-61
2023/10/23 10:12:22;;;;;;;12.65;7.45;;;;;;;;;;5112031;28;20821;-60
2023/10/23 10:14:48;;;;;;;11.25;6.72;;;;;;;;;;5093611;28;20052;-60
2023/10/23 10:17:20;;;;;;;10.20;6.68;;;;;;;;;;5077317;28;20051;-60
2023/10/23 10:19:47;;;;;;;9.75;7.03;;;;;;;;;;5094681;28;20083;-61
2023/10/23 10:22:33;;;;;;;11.82;6.80;;;;;;;;;;5098236;28;20047;-61
2023/10/23 10:24:59;;;;;;;11.00;7.15;;;;;;;;;;5091478;28;20051;-61
2023/10/23 10:27:26;;;;;;;10.55;7.80;;;;;;;;;;5077835;28;20047;-61
2023/10/23 10:29:52;;;;;;;9.40;6.75;;;;;;;;;;5113019;28;20089;-61
2023/10/23 10:32:18;;;;;;;11.63;7.25;;;;;;;;;;5110357;27;20055;-61
2023/10/23 10:34:48;;;;;;;8.90;6.03;;;;;;;;;;5095014;28;20131;-61
2023/10/23 10:37:15;;;;;;;8.77;6.13;;;;;;;;;;5112386;28;20126;-61
2023/10/23 10:39:46;;;;;;;11.85;5.47;;;;;;;;;;5112676;28;20051;-61
2023/10/23 10:42:31;;;;;;;10.55;5.43;;;;;;;;;;5110999;28;20082;-61
2023/10/23 10:44:59;;;;;;;12.25;5.80;;;;;;;;;;5111477;28;20054;-61
2023/10/23 10:47:39;;;;;;;9.70;5.30;;;;;;;;;;5106963;28;20379;-61
2023/10/23 10:50:05;;;;;;;8.38;5.50;;;;;;;;;;5111717;28;20433;-61
2023/10/23 10:52:38;;;;;;;11.52;6.38;;;;;;;;;;5108157;28;20119;-61
2023/10/23 10:55:05;;;;;;;10.18;5.88;;;;;;;;;;5094362;28;20043;-62
2023/10/23 10:57:31;;;;;;;8.60;5.80;;;;;;;;;;5093238;28;20036;-61
2023/10/23 11:00:00;;;;;;;8.88;6.30;;;;;;;;;;5094101;28;20043;-62
2023/10/23 11:02:26;;;;;;;10.20;6.53;;;;;;;;;;5092723;28;20108;-61
2023/10/23 11:04:52;;;;;;;14.35;6.32;;;;;;;;;;5111812;28;20051;-61
2023/10/23 11:07:26;;;;;;;9.48;6.13;;;;;;;;;;5110623;28;20047;-62
2023/10/23 11:09:52;;;;;;;10.65;6.80;;;;;;;;;;5081163;28;20101;-61
2023/10/23 11:12:19;;;;;;;11.23;7.05;;;;;;;;;;5108910;28;20127;-61
2023/10/23 11:14:48;;;;;;;14.85;9.25;;;;;;;;;;5108019;28;20132;-61
2023/10/23 11:17:14;;;;;;;14.57;9.45;;;;;;;;;;5090360;28;20075;-62
2023/10/23 11:19:45;;;;;;;13.07;9.73;;;;;;;;;;5107368;28;20068;-61
2023/10/23 11:22:12;;;;;;;15.63;9.50;;;;;;;;;;5106760;28;20057;-61
2023/10/23 11:24:38;;;;;;;13.30;9.85;;;;;;;;;;5111269;28;20039;-62
2023/10/23 11:27:05;;;;;;;13.25;9.93;;;;;;;;;;5091466;28;20127;-61
2023/10/23 11:29:42;;;;;;;14.52;10.05;;;;;;;;;;5110484;28;20498;-61
2023/10/23 11:32:11;;;;;;;13.95;9.82;;;;;;;;;;5074587;28;20487;-61
2023/10/23 11:34:37;;;;;;;11.52;9.15;;;;;;;;;;5093077;28;20051;-61
2023/10/23 11:37:08;;;;;;;12.82;10.07;;;;;;;;;;5109022;28;20035;-62
2023/10/23 11:39:39;;;;;;;14.18;10.27;;;;;;;;;;5092369;28;20048;-61
2023/10/23 11:42:05;;;;;;;;;;;;;;;;;;5088811;28;20490;-62
2023/10/23 11:44:34;;;;;;;16.58;10.15;;;;;;;;;;5109910;28;19926;-61
2023/10/23 11:47:01;;;;;;;11.57;9.70;;;;;;;;;;5110528;28;20095;-61
2023/10/23 11:49:27;;;;;;;16.40;10.88;;;;;;;;;;5110649;28;20079;-61
2023/10/23 11:51:54;;;;;;;14.43;11.35;;;;;;;;;;5092762;28;20073;-61
2023/10/23 11:54:20;;;;;;;13.68;10.80;;;;;;;;;;5108369;28;20048;-61
2023/10/23 11:56:46;;;;;;;15.73;10.73;;;;;;;;;;5106599;28;20449;-61
2023/10/23 11:59:19;;;;;;;12.45;10.07;;;;;;;;;;5112536;28;20548;-61
2023/10/23 12:01:45;;;;;;;16.30;12.00;;;;;;;;;;5114537;28;20071;-61
2023/10/23 12:04:12;;;;;;;15.52;12.20;;;;;;;;;;5095929;28;20031;-61
2023/10/23 12:06:39;;;;;;;16.80;12.15;;;;;;;;;;5110435;28;20510;-61
2023/10/23 12:09:05;;;;;;;16.88;12.13;;;;;;;;;;5095510;28;20433;-62
2023/10/23 12:11:31;;;;;;;15.43;11.98;;;;;;;;;;5096424;28;20086;-61
2023/10/23 12:13:59;;;;;;;19.30;12.38;;;;;;;;;;5096638;28;20392;-61
2023/10/23 12:16:28;;;;;;;17.35;13.25;;;;;;;;;;5113099;28;20395;-61
2023/10/23 12:18:54;;;;;;;15.30;11.70;;;;;;;;;;5115181;28;20498;-59
2023/10/23 12:21:20;;;;;;;16.27;12.18;;;;;;;;;;5113176;28;20487;-59
2023/10/23 12:23:47;;;;;;;15.20;11.45;;;;;;;;;;5096915;28;20502;-61
2023/10/23 12:26:13;;;;;;;16.27;12.25;;;;;;;;;;5098007;27;20035;-61
2023/10/23 12:28:39;;;;;;;15.13;11.45;;;;;;;;;;5096186;28;20051;-61
2023/10/23 12:31:08;;;;;;;16.63;11.55;;;;;;;;;;5094872;28;20126;-61
2023/10/23 12:33:36;;;;;;;14.27;11.00;;;;;;;;;;5101092;28;20052;-61
2023/10/23 12:36:05;;;;;;;13.93;10.32;;;;;;;;;;5113786;28;20139;-63
2023/10/23 12:38:34;;;;;;;16.73;11.30;;;;;;;;;;5090282;28;20059;-61
2023/10/23 12:41:01;;;;;;;14.38;10.85;;;;;;;;;;5094430;28;20077;-61
2023/10/23 12:43:30;;;;;;;14.82;10.90;;;;;;;;;;5075503;28;20046;-61
2023/10/23 12:45:56;;;;;;;14.70;10.27;;;;;;;;;;5107394;28;20511;-61
2023/10/23 12:48:22;;;;;;;15.98;11.10;;;;;;;;;;5096111;28;20039;-60
2023/10/23 12:50:48;;;;;;;15.23;10.55;;;;;;;;;;5112991;28;20053;-61
2023/10/23 12:53:14;;;;;;;17.90;11.27;;;;;;;;;;5079384;28;20069;-61
2023/10/23 12:55:42;;;;;;;16.77;11.30;;;;;;;;;;5095841;28;20070;-61
2023/10/23 12:58:08;;;;;;;14.32;9.90;;;;;;;;;;5112900;28;20051;-61
2023/10/23 13:00:34;;;;;;;14.65;10.30;;;;;;;;;;5113447;28;20040;-61
2023/10/23 13:03:00;;;;;;;13.45;10.40;;;;;;;;;;5095031;28;20073;-60
2023/10/23 13:05:27;;;;;;;14.30;9.80;;;;;;;;;;5109699;27;20044;-61
2023/10/23 13:07:53;;;;;;;13.65;9.85;;;;;;;;;;5111046;28;20048;-61
2023/10/23 13:10:19;;;;;;;13.98;10.10;;;;;;;;;;5093027;28;20050;-60
2023/10/23 13:12:45;;;;;;;18.17;11.57;;;;;;;;;;5095574;28;20047;-61
2023/10/23 13:15:11;;;;;;;14.10;9.73;;;;;;;;;;5095194;28;20051;-61
2023/10/23 13:17:37;;;;;;;13.65;10.02;;;;;;;;;;5096078;28;20051;-61
2023/10/23 13:20:06;;;;;;;16.40;10.30;;;;;;;;;;5076719;28;20376;-62
2023/10/23 13:22:34;;;;;;;15.43;10.45;;;;;;;;;;5096075;28;20059;-60
2023/10/23 13:25:00;;;;;;;15.35;10.05;;;;;;;;;;5094014;28;20086;-61
2023/10/23 13:27:26;;;;;;;16.08;10.40;;;;;;;;;;5112908;28;20048;-61
2023/10/23 13:29:52;;;;;;;17.42;10.88;;;;;;;;;;5112745;28;20123;-61
2023/10/23 13:32:19;;;;;;;16.70;10.45;;;;;;;;;;5113341;28;20059;-61
2023/10/23 13:34:45;;;;;;;14.50;11.10;;;;;;;;;;5111496;28;20051;-61
2023/10/23 13:37:11;;;;;;;15.93;10.55;;;;;;;;;;5092880;28;20130;-61
2023/10/23 13:39:37;;;;;;;18.02;11.60;;;;;;;;;;5113498;27;20048;-61
2023/10/23 13:42:03;;;;;;;16.85;12.20;;;;;;;;;;5112616;28;20050;-63
2023/10/23 13:44:31;;;;;;;17.33;11.52;;;;;;;;;;5114874;27;20491;-61
2023/10/23 13:46:57;;;;;;;14.38;10.68;;;;;;;;;;5094811;28;20047;-61
2023/10/23 13:49:23;;;;;;;17.08;11.60;;;;;;;;;;5113429;28;20046;-62
2023/10/23 13:51:49;;;;;;;15.98;11.18;;;;;;;;;;5113723;28;20138;-61
2023/10/23 13:54:15;;;;;;;15.23;11.13;;;;;;;;;;5112947;27;20075;-61
2023/10/23 13:56:41;;;;;;;18.05;12.10;;;;;;;;;;5094998;28;20122;-61
2023/10/23 13:59:10;;;;;;;16.55;11.85;;;;;;;;;;5094687;28;20051;-61
2023/10/23 14:01:36;;;;;;;18.00;11.88;;;;;;;;;;5113283;28;20502;-61
2023/10/23 14:04:03;;;;;;;18.35;13.02;;;;;;;;;;5095922;28;20039;-62
2023/10/23 14:06:31;;;;;;;17.85;12.75;;;;;;;;;;5095088;28;20047;-61
2023/10/23 14:08:57;;;;;;;18.05;12.40;;;;;;;;;;5111945;28;20491;-61
2023/10/23 14:11:23;;;;;;;17.65;13.25;;;;;;;;;;5094666;28;20077;-61
2023/10/23 14:13:49;;;;;;;18.08;12.82;;;;;;;;;;5113143;27;20439;-61
2023/10/23 14:16:15;;;;;;;18.00;13.27;;;;;;;;;;5114562;27;20058;-61
2023/10/23 14:18:41;;;;;;;20.83;12.48;;;;;;;;;;5105787;27;20051;-61
2023/10/23 14:21:07;;;;;;;21.88;13.15;;;;;;;;;;5105585;27;20052;-62